Time;durP1;ratioP1;P1;durP2;ratioP2;P2;SDS_P1;SDS_P2;PMS_P1;PMS_P2;Temp;Humidity;BMP_temperature;BMP_pressure;BME280_temperature;BME280_humidity;BME280_pressure;Samples;Min_cycle;Max_cycle;Signal;HPM_P1;HPM_P2
2021/11/16 00:01:54;;;;;;;;;;;17.90;73.00;;;;;;5075712;28;19925;-52
2021/11/16 00:04:21;;;;;;;;;;;17.90;73.10;;;;;;5075797;28;20379;-54
2021/11/16 00:06:52;;;;;;;;;;;17.90;73.10;;;;;;5075635;28;19932;-50
2021/11/16 00:09:20;;;;;;;;;;;17.90;73.10;;;;;;5076057;28;19993;-52
2021/11/16 00:11:47;;;;;;;;;;;17.90;73.00;;;;;;5075984;28;19925;-55
2021/11/16 00:14:16;;;;;;;;;;;17.90;73.00;;;;;;5075925;28;19928;-53
2021/11/16 00:16:43;;;;;;;;;;;17.90;73.00;;;;;;5075870;28;19963;-51
2021/11/16 00:19:15;;;;;;;;;;;17.90;73.10;;;;;;5075524;28;20022;-54
2021/11/16 00:21:44;;;;;;;;;;;17.90;73.10;;;;;;5074779;28;20018;-50
2021/11/16 00:24:19;;;;;;;;;;;17.90;73.10;;;;;;5075544;28;19925;-46
2021/11/16 00:26:46;;;;;;;;;;;17.90;73.10;;;;;;5075723;28;19978;-48
2021/11/16 00:29:14;;;;;;;;;;;17.90;73.10;;;;;;5075617;28;19924;-52
2021/11/16 00:31:41;;;;;;;;;;;17.90;73.10;;;;;;5075131;28;19924;-47
2021/11/16 00:34:08;;;;;;;;;;;17.90;73.10;;;;;;5075540;28;19929;-48
2021/11/16 00:36:36;;;;;;;;;;;17.90;73.10;;;;;;5056656;28;19924;-52
2021/11/16 00:39:03;;;;;;;;;;;17.90;73.10;;;;;;5075384;28;19929;-53
2021/11/16 00:41:30;;;;;;;;;;;17.90;73.10;;;;;;5075289;28;19932;-52
2021/11/16 00:43:58;;;;;;;;;;;17.90;73.10;;;;;;5075897;28;19974;-49
2021/11/16 00:46:25;;;;;;;;;;;17.90;73.00;;;;;;5075286;28;19924;-49
2021/11/16 00:48:52;;;;;;;;;;;17.90;73.10;;;;;;5075447;28;19924;-52
2021/11/16 00:51:19;;;;;;;;;;;17.90;73.00;;;;;;5073602;28;19924;-52
2021/11/16 00:53:46;;;;;;;;;;;17.90;73.00;;;;;;5074558;28;20438;-55
2021/11/16 00:56:13;;;;;;;;;;;17.90;73.00;;;;;;5074592;28;20368;-48
2021/11/16 00:58:40;;;;;;;;;;;17.90;73.00;;;;;;5075025;28;19925;-53
2021/11/16 01:01:07;;;;;;;;;;;17.90;73.00;;;;;;5074593;28;19939;-50
2021/11/16 01:03:35;;;;;;;;;;;17.90;73.00;;;;;;5073725;28;19924;-53
2021/11/16 01:06:03;;;;;;;;;;;17.90;73.00;;;;;;5073751;28;19974;-49
2021/11/16 01:08:30;;;;;;;;;;;17.90;73.00;;;;;;5074829;28;19970;-50
2021/11/16 01:10:57;;;;;;;;;;;17.90;73.00;;;;;;5074805;28;20326;-53
2021/11/16 01:13:25;;;;;;;;;;;17.90;72.90;;;;;;5074773;28;20322;-53
2021/11/16 01:15:53;;;;;;;;;;;17.90;73.00;;;;;;5074363;28;19931;-48
2021/11/16 01:18:21;;;;;;;;;;;17.90;72.90;;;;;;5056984;28;19932;-52
2021/11/16 01:20:48;;;;;;;;;;;17.90;72.90;;;;;;5073165;28;19932;-47
2021/11/16 01:23:15;;;;;;;;;;;17.90;72.90;;;;;;5074085;28;19932;-48
2021/11/16 01:25:44;;;;;;;;;;;17.90;72.90;;;;;;5074509;28;19932;-48
2021/11/16 01:28:13;;;;;;;;;;;17.90;72.90;;;;;;5074750;28;19974;-48
2021/11/16 01:30:42;;;;;;;;;;;17.90;72.90;;;;;;5074434;28;19928;-48
2021/11/16 01:33:14;;;;;;;;;;;17.90;72.90;;;;;;5074483;28;20291;-51
2021/11/16 01:35:43;;;;;;;;;;;17.90;72.90;;;;;;5073421;28;19950;-50
2021/11/16 01:38:11;;;;;;;;;;;17.90;72.90;;;;;;5074222;28;20002;-53
2021/11/16 01:40:40;;;;;;;;;;;17.90;72.90;;;;;;5074254;28;19928;-54
2021/11/16 01:43:09;;;;;;;;;;;17.90;72.90;;;;;;5074013;28;20319;-48
2021/11/16 01:45:55;;;;;;;;;;;17.90;72.90;;;;;;5074607;28;19928;-50
2021/11/16 01:48:24;;;;;;;;;;;17.90;72.90;;;;;;5074249;28;19978;-50
2021/11/16 01:50:51;;;;;;;;;;;17.90;72.90;;;;;;5073322;28;20375;-53
2021/11/16 01:53:18;;;;;;;;;;;17.90;72.90;;;;;;5073609;28;19928;-49
2021/11/16 01:55:45;;;;;;;;;;;17.90;72.80;;;;;;5073823;28;19947;-54
2021/11/16 01:58:12;;;;;;;;;;;17.90;72.90;;;;;;5074081;28;19924;-49
2021/11/16 02:00:41;;;;;;;;;;;17.90;72.90;;;;;;5074002;28;19970;-48
2021/11/16 02:03:11;;;;;;;;;;;17.90;72.90;;;;;;5073841;28;19932;-49
2021/11/16 02:05:39;;;;;;;;;;;17.90;72.90;;;;;;5074023;28;19924;-52
2021/11/16 02:08:07;;;;;;;;;;;17.90;72.90;;;;;;5072987;28;19997;-47
2021/11/16 02:10:34;;;;;;;;;;;17.90;72.80;;;;;;5073653;28;20384;-46
2021/11/16 02:13:01;;;;;;;;;;;17.90;72.80;;;;;;5073939;28;19974;-50
2021/11/16 02:15:28;;;;;;;;;;;17.90;73.60;;;;;;5055461;28;19932;-50
2021/11/16 02:17:56;;;;;;;;;;;17.90;72.80;;;;;;5074749;28;19925;-53
2021/11/16 02:20:23;;;;;;;;;;;17.90;72.80;;;;;;5056123;28;19947;-51
2021/11/16 02:22:49;;;;;;;;;;;17.90;72.80;;;;;;5072164;28;19928;-48
2021/11/16 02:25:17;;;;;;;;;;;17.90;72.80;;;;;;5073852;28;19924;-49
2021/11/16 02:27:46;;;;;;;;;;;17.90;72.80;;;;;;5073501;28;19924;-50
2021/11/16 02:30:13;;;;;;;;;;;17.90;72.80;;;;;;5073476;28;19925;-47
2021/11/16 02:32:46;;;;;;;;;;;17.90;72.80;;;;;;5073332;28;19932;-51
2021/11/16 02:35:16;;;;;;;;;;;17.90;72.80;;;;;;5073753;28;19924;-49
2021/11/16 02:37:44;;;;;;;;;;;17.90;72.80;;;;;;5072530;28;19925;-48
2021/11/16 02:40:12;;;;;;;;;;;17.90;72.80;;;;;;5073383;28;19924;-51
2021/11/16 02:42:39;;;;;;;;;;;17.90;72.80;;;;;;5073292;28;19935;-54
2021/11/16 02:45:08;;;;;;;;;;;17.90;72.80;;;;;;5073330;28;19929;-49
2021/11/16 02:47:35;;;;;;;;;;;17.90;72.80;;;;;;5073303;28;20395;-50
2021/11/16 02:50:03;;;;;;;;;;;17.90;72.80;;;;;;5073593;28;20003;-54
2021/11/16 02:52:30;;;;;;;;;;;17.90;72.80;;;;;;5072047;28;19925;-49
2021/11/16 02:54:57;;;;;;;;;;;17.90;72.80;;;;;;5073105;28;19924;-49
2021/11/16 02:57:24;;;;;;;;;;;17.90;72.80;;;;;;5073584;28;19990;-51
2021/11/16 02:59:51;;;;;;;;;;;17.90;72.80;;;;;;5073498;28;19974;-47
2021/11/16 03:02:18;;;;;;;;;;;17.90;72.80;;;;;;5072958;28;20383;-53
2021/11/16 03:04:46;;;;;;;;;;;17.90;72.80;;;;;;5073129;28;19979;-46
2021/11/16 03:07:14;;;;;;;;;;;17.90;72.80;;;;;;5071864;28;19954;-50
2021/11/16 03:09:49;;;;;;;;;;;17.90;72.80;;;;;;5073959;28;19931;-51
2021/11/16 03:12:16;;;;;;;;;;;17.90;72.80;;;;;;5073382;28;19931;-53
2021/11/16 03:14:44;;;;;;;;;;;17.90;72.80;;;;;;5073032;28;19939;-50
2021/11/16 03:17:11;;;;;;;;;;;17.90;72.80;;;;;;5073041;28;19931;-52
2021/11/16 03:19:38;;;;;;;;;;;17.90;72.80;;;;;;5055371;28;19929;-52
2021/11/16 03:22:05;;;;;;;;;;;17.90;72.80;;;;;;5072752;28;19939;-52
2021/11/16 03:24:34;;;;;;;;;;;17.90;72.80;;;;;;5072809;28;19933;-54
2021/11/16 03:27:08;;;;;;;;;;;17.90;72.80;;;;;;5074777;28;19924;-53
2021/11/16 03:29:37;;;;;;;;;;;17.90;72.80;;;;;;5076519;28;20368;-53
2021/11/16 03:32:08;;;;;;;;;;;17.90;72.80;;;;;;5076275;28;20417;-51
2021/11/16 03:34:35;;;;;;;;;;;17.90;72.80;;;;;;5059615;28;19925;-49
2021/11/16 03:37:03;;;;;;;;;;;17.90;72.80;;;;;;5075686;28;20053;-55
2021/11/16 03:39:31;;;;;;;;;;;17.90;72.80;;;;;;5076625;28;19925;-52
2021/11/16 03:41:58;;;;;;;;;;;17.90;72.80;;;;;;5076496;28;19936;-46
2021/11/16 03:44:26;;;;;;;;;;;17.90;72.80;;;;;;5076210;28;19925;-52
2021/11/16 03:46:54;;;;;;;;;;;17.90;72.80;;;;;;5076168;28;20417;-54
2021/11/16 03:49:21;;;;;;;;;;;17.90;72.80;;;;;;5076414;28;19976;-49
2021/11/16 03:51:48;;;;;;;;;;;17.90;73.20;;;;;;5076386;28;20320;-48
2021/11/16 03:54:15;;;;;;;;;;;18.00;72.90;;;;;;5074646;28;20398;-47
2021/11/16 03:56:42;;;;;;;;;;;17.90;72.70;;;;;;5075850;28;20342;-51
2021/11/16 03:59:10;;;;;;;;;;;18.00;72.80;;;;;;5075871;28;19928;-52
2021/11/16 04:01:37;;;;;;;;;;;17.90;72.70;;;;;;5058094;28;20380;-55
2021/11/16 04:04:05;;;;;;;;;;;17.90;72.80;;;;;;5076134;28;19924;-50
2021/11/16 04:06:32;;;;;;;;;;;17.90;72.80;;;;;;5076348;28;19967;-54
2021/11/16 04:08:59;;;;;;;;;;;18.00;72.90;;;;;;5057574;28;19948;-55
2021/11/16 04:11:26;;;;;;;;;;;17.90;72.80;;;;;;5075682;28;19925;-55
2021/11/16 04:13:53;;;;;;;;;;;18.00;72.80;;;;;;5075984;28;19990;-53
2021/11/16 04:16:23;;;;;;;;;;;18.00;72.80;;;;;;5075943;28;19993;-54
2021/11/16 04:18:50;;;;;;;;;;;18.00;72.80;;;;;;5075516;28;19924;-52
2021/11/16 04:21:17;;;;;;;;;;;18.00;72.80;;;;;;5058145;28;19939;-54
2021/11/16 04:23:44;;;;;;;;;;;17.90;72.80;;;;;;5056994;28;20331;-54
2021/11/16 04:26:11;;;;;;;;;;;18.00;72.80;;;;;;5057995;28;19925;-53
2021/11/16 04:28:38;;;;;;;;;;;18.00;72.90;;;;;;5075348;28;19924;-52
2021/11/16 04:31:05;;;;;;;;;;;18.00;72.80;;;;;;5075492;28;20295;-50
2021/11/16 04:33:33;;;;;;;;;;;18.00;72.80;;;;;;5075558;28;19925;-51
2021/11/16 04:36:01;;;;;;;;;;;18.00;72.80;;;;;;5075493;28;20007;-54
2021/11/16 04:38:28;;;;;;;;;;;18.00;72.80;;;;;;5055953;28;20485;-52
2021/11/16 04:40:57;;;;;;;;;;;18.00;72.80;;;;;;5075307;28;19924;-51
2021/11/16 04:43:27;;;;;;;;;;;18.00;72.80;;;;;;5075611;28;19925;-55
2021/11/16 04:45:58;;;;;;;;;;;18.00;72.80;;;;;;5075009;28;19928;-51
2021/11/16 04:49:16;;;;;;;;;;;18.00;72.80;;;;;;5075296;28;19931;-50
2021/11/16 04:51:44;;;;;;;;;;;18.00;72.80;;;;;;5066926;28;19928;-50
2021/11/16 04:59:39;;;;;;;;;;;18.00;72.80;;;;;;5074760;28;19924;-51
2021/11/16 05:04:53;;;;;;;;;;;18.00;72.80;;;;;;5074968;28;19928;-50
2021/11/16 05:07:22;;;;;;;;;;;18.00;72.80;;;;;;5074556;28;19924;-49
2021/11/16 05:09:54;;;;;;;;;;;18.00;72.80;;;;;;5074207;28;19924;-49
2021/11/16 05:12:22;;;;;;;;;;;17.90;72.70;;;;;;5074756;28;20281;-50
2021/11/16 05:14:50;;;;;;;;;;;17.90;72.70;;;;;;5074759;28;19929;-49
2021/11/16 05:17:17;;;;;;;;;;;18.00;72.80;;;;;;5074424;28;19946;-45
2021/11/16 05:19:44;;;;;;;;;;;18.00;72.80;;;;;;5056679;28;19928;-47
2021/11/16 05:22:11;;;;;;;;;;;18.00;72.80;;;;;;5074523;28;19932;-54
2021/11/16 05:24:38;;;;;;;;;;;18.00;72.80;;;;;;5055893;28;19925;-49
2021/11/16 05:27:05;;;;;;;;;;;18.00;72.80;;;;;;5074790;28;19925;-48
2021/11/16 05:29:32;;;;;;;;;;;18.00;72.80;;;;;;5074481;28;19939;-49
2021/11/16 05:31:59;;;;;;;;;;;18.00;72.80;;;;;;5074365;28;19928;-50
2021/11/16 05:34:26;;;;;;;;;;;18.00;72.80;;;;;;5074086;28;20388;-48
2021/11/16 05:36:53;;;;;;;;;;;18.00;72.80;;;;;;5074069;28;19967;-50
2021/11/16 05:39:20;;;;;;;;;;;18.00;72.80;;;;;;5073484;28;19932;-51
2021/11/16 05:41:48;;;;;;;;;;;17.90;72.60;;;;;;5073926;28;19979;-49
2021/11/16 05:44:15;;;;;;;;;;;18.00;72.70;;;;;;5074307;28;19925;-48
2021/11/16 05:46:42;;;;;;;;;;;18.00;72.80;;;;;;5073923;28;19931;-46
2021/11/16 05:49:09;;;;;;;;;;;18.00;72.70;;;;;;5073278;28;19928;-52
2021/11/16 05:51:36;;;;;;;;;;;18.00;72.70;;;;;;5073862;28;19924;-49
2021/11/16 05:54:05;;;;;;;;;;;18.00;72.80;;;;;;5072799;28;19954;-51
2021/11/16 05:56:34;;;;;;;;;;;18.00;72.80;;;;;;5073868;28;19925;-54
2021/11/16 05:59:02;;;;;;;;;;;18.00;72.70;;;;;;5073754;28;19925;-50
2021/11/16 06:01:30;;;;;;;;;;;18.00;72.80;;;;;;5073629;28;19970;-51
2021/11/16 06:03:58;;;;;;;;;;;18.00;72.70;;;;;;5073696;28;19925;-49
2021/11/16 06:06:27;;;;;;;;;;;18.00;72.70;;;;;;5073698;28;19925;-46
2021/11/16 06:08:55;;;;;;;;;;;18.00;72.70;;;;;;5073218;28;20403;-54
2021/11/16 06:11:23;;;;;;;;;;;18.00;72.80;;;;;;5073972;28;19925;-52
2021/11/16 06:13:51;;;;;;;;;;;18.00;72.80;;;;;;5073624;28;19924;-51
2021/11/16 06:16:19;;;;;;;;;;;18.00;72.80;;;;;;5073625;28;20041;-46
2021/11/16 06:18:48;;;;;;;;;;;18.00;72.80;;;;;;5073925;28;20336;-50
2021/11/16 06:21:15;;;;;;;;;;;18.00;72.80;;;;;;5056180;28;20314;-48
2021/11/16 06:23:42;;;;;;;;;;;18.00;72.80;;;;;;5072994;28;20395;-48
2021/11/16 06:26:09;;;;;;;;;;;18.00;72.80;;;;;;5073289;28;19928;-53
2021/11/16 06:28:36;;;;;;;;;;;18.00;72.80;;;;;;5073794;28;19928;-51
2021/11/16 06:31:03;;;;;;;;;;;18.00;72.80;;;;;;5073399;28;19925;-48
2021/11/16 06:33:30;;;;;;;;;;;18.00;72.70;;;;;;5073465;28;19974;-50
2021/11/16 06:35:57;;;;;;;;;;;18.00;72.70;;;;;;5073746;28;20338;-47
2021/11/16 06:38:24;;;;;;;;;;;18.00;72.70;;;;;;5073720;28;19929;-51
2021/11/16 06:40:51;;;;;;;;;;;18.00;72.70;;;;;;5073580;28;19924;-55
2021/11/16 06:43:26;;;;;;;;;;;18.00;72.70;;;;;;5073260;28;19932;-53
2021/11/16 06:45:55;;;;;;;;;;;18.00;72.70;;;;;;5073699;28;19932;-47
2021/11/16 06:48:22;;;;;;;;;;;18.00;72.70;;;;;;5074526;28;19924;-55
2021/11/16 06:50:50;;;;;;;;;;;18.00;72.70;;;;;;5073577;28;19960;-55
2021/11/16 06:53:24;;;;;;;;;;;18.00;72.70;;;;;;5073073;28;19924;-54
2021/11/16 06:55:52;;;;;;;;;;;18.00;72.70;;;;;;5054634;28;19964;-53
2021/11/16 06:58:19;;;;;;;;;;;18.00;72.60;;;;;;5073198;28;19974;-50
2021/11/16 07:00:46;;;;;;;;;;;18.00;72.60;;;;;;5075079;28;20335;-52
2021/11/16 07:03:17;;;;;;;;;;;18.00;72.60;;;;;;5076790;28;19924;-55
2021/11/16 07:05:55;;;;;;;;;;;18.00;72.60;;;;;;5076932;28;20379;-50
2021/11/16 07:08:29;;;;;;;;;;;18.00;72.50;;;;;;5076870;28;19924;-52
2021/11/16 07:11:07;;;;;;;;;;;18.00;72.50;;;;;;5076999;28;19932;-53
2021/11/16 07:13:35;;;;;;;;;;;18.00;72.50;;;;;;5076746;28;20402;-51
2021/11/16 07:16:11;;;;;;;;;;;18.00;72.50;;;;;;5076744;28;19946;-49
2021/11/16 07:18:50;;;;;;;;;;;18.00;72.50;;;;;;5077065;28;19925;-48
2021/11/16 07:21:21;;;;;;;;;;;18.00;72.50;;;;;;5076996;28;19990;-50
2021/11/16 07:24:05;;;;;;;;;;;18.10;72.50;;;;;;5076730;28;19925;-55
2021/11/16 07:26:32;;;;;;;;;;;18.10;72.50;;;;;;5076387;28;19924;-52
2021/11/16 07:28:59;;;;;;;;;;;18.00;72.30;;;;;;5076750;28;19928;-49
2021/11/16 07:31:27;;;;;;;;;;;18.10;72.40;;;;;;5076284;28;19924;-45
2021/11/16 07:33:59;;;;;;;;;;;18.10;72.40;;;;;;5058964;28;19925;-49
2021/11/16 07:36:26;;;;;;;;;;;18.10;72.40;;;;;;5076658;28;19925;-50
2021/11/16 07:38:53;;;;;;;;;;;18.10;72.40;;;;;;5076560;28;19931;-54
2021/11/16 07:41:22;;;;;;;;;;;18.10;72.40;;;;;;5076265;28;19925;-54
2021/11/16 07:43:50;;;;;;;;;;;18.10;72.30;;;;;;5076465;28;19966;-52
2021/11/16 07:46:17;;;;;;;;;;;18.10;72.30;;;;;;5076186;28;19924;-48
2021/11/16 07:48:44;;;;;;;;;;;18.10;72.30;;;;;;5076130;28;19925;-56
2021/11/16 07:51:12;;;;;;;;;;;18.10;72.30;;;;;;5076099;28;20350;-51
2021/11/16 07:53:40;;;;;;;;;;;18.10;72.20;;;;;;5075847;28;19981;-52
2021/11/16 07:56:09;;;;;;;;;;;18.10;72.20;;;;;;5075533;28;19924;-48
2021/11/16 07:58:38;;;;;;;;;;;18.10;72.20;;;;;;5076191;28;19924;-49
2021/11/16 08:01:10;;;;;;;;;;;18.10;72.20;;;;;;5076093;28;20342;-52
2021/11/16 08:03:50;;;;;;;;;;;18.10;72.10;;;;;;5058109;28;20388;-51
2021/11/16 08:13:49;;;;;;;;;;;18.20;72.10;;;;;;5075468;28;19931;-52
2021/11/16 08:16:16;;;;;;;;;;;18.20;72.10;;;;;;5058192;28;19925;-51
2021/11/16 08:18:45;;;;;;;;;;;18.20;72.00;;;;;;5075567;28;19932;-54
2021/11/16 08:21:13;;;;;;;;;;;18.20;72.00;;;;;;5075563;28;20348;-52
2021/11/16 08:23:49;;;;;;;;;;;18.20;72.00;;;;;;5075197;28;19933;-51
2021/11/16 08:26:21;;;;;;;;;;;18.20;72.00;;;;;;5075181;28;19924;-56
2021/11/16 08:28:49;;;;;;;;;;;18.20;72.00;;;;;;5057701;28;19924;-51
2021/11/16 08:31:16;;;;;;;;;;;18.20;71.90;;;;;;5057539;28;20407;-51
2021/11/16 08:33:45;;;;;;;;;;;18.20;71.90;;;;;;5075536;28;19931;-50
2021/11/16 08:36:12;;;;;;;;;;;18.20;72.60;;;;;;5076353;28;19948;-54
2021/11/16 08:38:40;;;;;;;;;;;18.20;72.00;;;;;;5075443;28;20062;-47
2021/11/16 08:41:07;;;;;;;;;;;18.20;71.80;;;;;;5074531;28;19925;-53
2021/11/16 08:43:38;;;;;;;;;;;18.20;71.80;;;;;;5074932;28;19931;-50
2021/11/16 08:46:07;;;;;;;;;;;18.30;71.80;;;;;;5074975;28;19935;-46
2021/11/16 08:48:39;;;;;;;;;;;18.20;71.70;;;;;;5074678;28;20415;-51
2021/11/16 08:51:08;;;;;;;;;;;18.30;71.70;;;;;;5074863;28;19928;-50
2021/11/16 08:53:37;;;;;;;;;;;18.30;71.60;;;;;;5074615;28;19924;-50
2021/11/16 08:56:27;;;;;;;;;;;18.30;71.60;;;;;;5074211;28;19924;-48
2021/11/16 08:59:20;;;;;;;;;;;18.30;71.50;;;;;;5074600;28;20372;-53
2021/11/16 09:02:01;;;;;;;;;;;18.30;71.40;;;;;;5074835;28;19978;-51
2021/11/16 09:04:30;;;;;;;;;;;18.40;71.60;;;;;;5074840;28;19925;-50
2021/11/16 09:06:58;;;;;;;;;;;18.30;71.40;;;;;;5074905;28;19924;-51
2021/11/16 09:09:26;;;;;;;;;;;18.40;71.60;;;;;;5074557;28;19931;-47
2021/11/16 09:11:55;;;;;;;;;;;18.40;71.50;;;;;;5073813;28;19925;-48
2021/11/16 09:14:22;;;;;;;;;;;18.40;71.50;;;;;;5074744;28;19932;-53
2021/11/16 09:16:49;;;;;;;;;;;18.40;71.50;;;;;;5074405;28;19979;-50
2021/11/16 09:19:27;;;;;;;;;;;18.40;71.50;;;;;;5074710;28;20372;-47
2021/11/16 09:21:54;;;;;;;;;;;18.40;71.50;;;;;;5074161;28;20383;-47
2021/11/16 09:24:28;;;;;;;;;;;18.40;71.40;;;;;;5073045;28;20358;-50
2021/11/16 09:27:11;;;;;;;;;;;18.40;71.40;;;;;;5073626;28;20290;-48
2021/11/16 09:29:40;;;;;;;;;;;18.40;71.40;;;;;;5074491;28;19925;-46
2021/11/16 09:32:14;;;;;;;;;;;18.40;71.40;;;;;;5073901;28;19924;-53
2021/11/16 09:34:48;;;;;;;;;;;18.40;71.40;;;;;;5074415;28;19924;-49
2021/11/16 09:37:16;;;;;;;;;;;18.40;71.40;;;;;;5074265;28;20379;-47
2021/11/16 09:39:45;;;;;;;;;;;18.40;71.40;;;;;;5074512;28;19925;-47
2021/11/16 09:42:20;;;;;;;;;;;18.40;71.40;;;;;;5073141;28;19924;-50
2021/11/16 09:44:52;;;;;;;;;;;18.40;71.40;;;;;;5073967;28;19924;-52
2021/11/16 09:47:23;;;;;;;;;;;18.40;71.40;;;;;;5074134;28;20334;-50
2021/11/16 09:49:58;;;;;;;;;;;18.40;71.30;;;;;;5073914;28;19939;-49
2021/11/16 09:52:25;;;;;;;;;;;18.40;71.30;;;;;;5056107;28;19974;-54
2021/11/16 09:54:52;;;;;;;;;;;18.40;71.30;;;;;;5073281;28;19924;-53
2021/11/16 09:57:23;;;;;;;;;;;18.40;71.30;;;;;;5073298;28;19998;-52
2021/11/16 09:59:51;;;;;;;;;;;18.50;71.40;;;;;;5074416;28;20033;-55
2021/11/16 10:02:26;;;;;;;;;;;18.40;71.30;;;;;;5073480;28;20015;-47
2021/11/16 10:04:54;;;;;;;;;;;18.50;71.40;;;;;;5073671;28;20003;-51
2021/11/16 10:07:22;;;;;;;;;;;18.50;71.40;;;;;;5073995;28;19928;-54
2021/11/16 10:09:50;;;;;;;;;;;18.40;71.30;;;;;;5073616;28;19924;-51
2021/11/16 10:12:18;;;;;;;;;;;18.40;71.30;;;;;;5054846;28;19924;-48
2021/11/16 10:14:45;;;;;;;;;;;18.40;71.30;;;;;;5074504;28;19925;-55
2021/11/16 10:17:12;;;;;;;;;;;18.40;71.30;;;;;;5055869;28;20300;-50
2021/11/16 10:19:40;;;;;;;;;;;18.40;71.30;;;;;;5073832;28;20319;-47
2021/11/16 10:22:11;;;;;;;;;;;18.50;71.40;;;;;;5056102;28;20290;-48
2021/11/16 10:24:39;;;;;;;;;;;18.40;71.20;;;;;;5073593;28;20012;-51
2021/11/16 10:27:25;;;;;;;;;;;18.50;71.40;;;;;;5072915;28;19932;-47
2021/11/16 10:30:04;;;;;;;;;;;18.50;71.30;;;;;;5073438;28;19931;-54
2021/11/16 10:32:31;;;;;;;;;;;18.50;71.30;;;;;;5073647;28;19986;-55
2021/11/16 10:35:07;;;;;;;;;;;18.50;71.20;;;;;;5074116;28;20351;-53
2021/11/16 10:37:55;;;;;;;;;;;18.50;71.20;;;;;;5077986;28;19938;-56
2021/11/16 10:40:24;;;;;;;;;;;18.50;71.10;;;;;;5077437;28;19932;-48
2021/11/16 10:42:52;;;;;;;;;;;18.50;71.10;;;;;;5077108;28;19925;-56
2021/11/16 10:45:22;;;;;;;;;;;18.50;71.20;;;;;;5077336;28;20088;-53
2021/11/16 10:47:49;;;;;;;;;;;18.50;71.20;;;;;;5077206;28;20344;-51
2021/11/16 10:50:19;;;;;;;;;;;18.50;71.20;;;;;;5077216;28;19931;-51
2021/11/16 10:52:59;;;;;;;;;;;18.50;71.20;;;;;;5059502;28;19929;-52
2021/11/16 10:55:38;;;;;;;;;;;18.50;71.20;;;;;;5077218;28;20353;-51
2021/11/16 10:58:06;;;;;;;;;;;18.50;71.20;;;;;;5076391;28;19924;-49
2021/11/16 11:00:47;;;;;;;;;;;18.50;71.20;;;;;;5077248;28;19925;-54
2021/11/16 11:03:53;;;;;;;;;;;18.50;71.20;;;;;;5076902;28;20026;-45
2021/11/16 11:06:22;;;;;;;;;;;18.50;71.20;;;;;;5015182;28;19929;-48
2021/11/16 11:08:50;;;;;;;;;;;18.50;71.20;;;;;;5015059;28;19926;-51
2021/11/16 11:11:35;;;;;;;;;;;18.50;71.20;;;;;;5014997;28;19925;-53
2021/11/16 11:14:05;;;;;;;;;;;18.50;71.30;;;;;;5013064;28;19932;-52
2021/11/16 11:16:35;;;;;;;;;;;18.50;71.30;;;;;;5016026;28;19958;-51
2021/11/16 11:19:04;;;;;;;;;;;18.50;71.20;;;;;;5013371;28;19988;-52
2021/11/16 11:21:40;;;;;;;;;;;18.50;71.20;;;;;;5014870;28;19931;-53
2021/11/16 11:24:11;;;;;;;;;;;18.50;71.20;;;;;;5014414;28;19926;-53
2021/11/16 11:26:48;;;;;;;;;;;18.60;71.30;;;;;;5014848;28;19929;-53
2021/11/16 11:32:28;;;;;;;;;;;18.50;71.10;;;;;;5014648;28;19926;-54
2021/11/16 11:35:00;;;;;;;;;;;18.50;71.20;;;;;;5015090;28;19925;-51
2021/11/16 11:37:28;;;;;;;;;;;18.60;71.30;;;;;;5014725;28;19925;-54
2021/11/16 11:39:59;;;;;;;;;;;18.50;71.20;;;;;;5035624;28;19924;-51
2021/11/16 11:42:28;;;;;;;;;;;18.50;71.20;;;;;;5075460;28;19946;-53
2021/11/16 11:45:08;;;;;;;;;;;18.50;71.20;;;;;;5076359;28;19932;-53
2021/11/16 11:47:40;;;;;;;;;;;18.60;71.30;;;;;;5075137;28;19924;-54
2021/11/16 11:50:28;;;;;;;;;;;18.50;71.20;;;;;;5076363;28;19955;-50
2021/11/16 11:52:57;;;;;;;;;;;18.60;71.30;;;;;;5076489;28;19948;-54
2021/11/16 11:55:25;;;;;;;;;;;18.60;71.30;;;;;;5058499;28;20405;-52
2021/11/16 11:57:52;;;;;;;;;;;18.60;71.20;;;;;;5075565;28;19925;-54
2021/11/16 12:00:22;;;;;;;;;;;18.50;71.20;;;;;;5076119;28;19931;-53
2021/11/16 12:02:50;;;;;;;;;;;18.50;71.10;;;;;;5075689;28;19968;-57
2021/11/16 12:05:17;;;;;;;;;;;18.60;71.20;;;;;;5076174;28;19924;-51
2021/11/16 12:07:45;;;;;;;;;;;18.60;71.10;;;;;;5058439;28;19924;-48
2021/11/16 12:10:13;;;;;;;;;;;18.60;71.20;;;;;;5058705;28;20399;-51
2021/11/16 12:12:40;;;;;;;;;;;18.60;71.10;;;;;;5057246;28;20007;-53
2021/11/16 12:15:12;;;;;;;;;;;18.60;71.20;;;;;;5075889;28;19925;-54
2021/11/16 12:17:50;;;;;;;;;;;18.60;71.10;;;;;;5075609;28;19924;-51
2021/11/16 12:20:33;;;;;;;;;;;18.60;71.10;;;;;;5075930;28;19931;-50
2021/11/16 12:23:00;;;;;;;;;;;18.60;71.20;;;;;;5075243;28;19928;-48
2021/11/16 12:25:27;;;;;;;;;;;18.60;71.10;;;;;;5076293;28;19924;-55
2021/11/16 12:27:54;;;;;;;;;;;18.60;71.10;;;;;;5074617;28;19951;-53
2021/11/16 12:30:33;;;;;;;;;;;18.60;71.20;;;;;;5075658;28;20284;-54
2021/11/16 12:33:01;;;;;;;;;;;18.60;71.10;;;;;;5075296;28;20007;-48
2021/11/16 12:35:28;;;;;;;;;;;18.60;71.10;;;;;;5075462;28;19932;-51
2021/11/16 12:37:56;;;;;;;;;;;18.60;71.10;;;;;;5075143;28;19924;-50
2021/11/16 12:40:36;;;;;;;;;;;18.60;71.10;;;;;;5075160;28;19925;-49
2021/11/16 12:43:07;;;;;;;;;;;18.60;71.10;;;;;;5074631;28;19955;-54
2021/11/16 12:45:39;;;;;;;;;;;18.60;71.10;;;;;;5075628;28;19950;-46
2021/11/16 12:48:06;;;;;;;;;;;18.60;71.10;;;;;;5074988;28;19932;-54
2021/11/16 12:50:35;;;;;;;;;;;18.60;71.10;;;;;;5074943;28;19970;-47
2021/11/16 12:53:02;;;;;;;;;;;18.60;71.10;;;;;;5075318;28;19931;-47
2021/11/16 12:55:34;;;;;;;;;;;18.60;71.20;;;;;;5074622;28;20016;-50
2021/11/16 12:58:20;;;;;;;;;;;18.60;71.20;;;;;;5073898;28;19931;-50
2021/11/16 13:00:48;;;;;;;;;;;18.60;71.20;;;;;;5074546;28;19924;-49
2021/11/16 13:03:15;;;;;;;;;;;18.60;71.20;;;;;;5074905;28;19924;-45
2021/11/16 13:05:45;;;;;;;;;;;18.60;71.20;;;;;;5074250;28;20215;-47
2021/11/16 13:08:26;;;;;;;;;;;18.60;71.20;;;;;;5074573;28;19931;-53
2021/11/16 13:10:58;;;;;;;;;;;18.60;71.20;;;;;;5075127;28;19931;-50
2021/11/16 13:13:26;;;;;;;;;;;18.60;71.20;;;;;;5075023;28;20280;-48
2021/11/16 13:15:56;;;;;;;;;;;18.60;71.20;;;;;;5094978;28;19924;-45
2021/11/16 13:18:23;;;;;;;;;;;18.60;71.20;;;;;;5095026;28;20339;-47
2021/11/16 13:21:08;;;;;;;;;;;18.60;71.20;;;;;;5094641;28;20387;-54
2021/11/16 13:23:43;;;;;;;;;;;18.60;71.20;;;;;;5076779;28;19973;-46
2021/11/16 13:26:22;;;;;;;;;;;18.60;71.30;;;;;;5094812;28;20002;-47
2021/11/16 13:29:51;;;;;;;;;;;18.50;71.20;;;;;;5089380;28;19932;-45
2021/11/16 13:31:57;;;;;;;;;;;18.60;71.30;;;;;;5061224;28;19924;-48
2021/11/16 13:34:41;;;;;;;;;;;18.50;71.20;;;;;;5074485;28;19924;-49
2021/11/16 13:37:11;;;;;;;;;;;18.50;71.20;;;;;;5074083;28;20388;-53
2021/11/16 13:39:39;;;;;;;;;;;18.60;71.40;;;;;;5074697;28;19970;-51
2021/11/16 13:42:06;;;;;;;;;;;18.60;71.40;;;;;;5074306;28;19928;-46
2021/11/16 13:44:33;;;;;;;;;;;18.50;71.30;;;;;;5072822;28;20407;-51
2021/11/16 13:47:18;;;;;;;;;;;18.50;71.30;;;;;;5073958;28;19928;-49
2021/11/16 13:49:56;;;;;;;;;;;18.50;72.00;;;;;;5073913;28;19925;-47
2021/11/16 13:52:33;;;;;;;;;;;18.50;71.30;;;;;;5074119;28;19931;-45
2021/11/16 13:55:08;;;;;;;;;;;18.50;71.30;;;;;;5073738;28;19928;-50
2021/11/16 13:57:37;;;;;;;;;;;18.50;71.40;;;;;;5073893;28;19924;-45
2021/11/16 14:00:04;;;;;;;;;;;18.50;71.40;;;;;;5072521;28;19924;-45
2021/11/16 14:02:31;;;;;;;;;;;18.50;71.40;;;;;;5073666;28;20379;-49
2021/11/16 14:05:00;;;;;;;;;;;18.50;71.40;;;;;;5073983;28;19932;-48
2021/11/16 14:07:28;;;;;;;;;;;18.50;71.50;;;;;;5074027;28;19925;-46
2021/11/16 14:10:04;;;;;;;;;;;18.50;71.40;;;;;;5073433;28;19959;-45
2021/11/16 14:12:32;;;;;;;;;;;18.50;71.50;;;;;;5073576;28;20303;-45
2021/11/16 14:15:00;;;;;;;;;;;18.50;71.50;;;;;;5073229;28;19928;-46
2021/11/16 14:17:28;;;;;;;;;;;18.50;71.50;;;;;;5073917;28;20269;-50
2021/11/16 14:19:57;;;;;;;;;;;18.50;71.50;;;;;;5073607;28;19974;-47
2021/11/16 14:22:36;;;;;;;;;;;18.50;71.50;;;;;;5073525;28;20387;-48
2021/11/16 14:25:20;;;;;;;;;;;18.50;71.60;;;;;;5073531;28;19954;-51
2021/11/16 14:27:58;;;;;;;;;;;18.50;71.60;;;;;;5073500;28;19931;-52
2021/11/16 14:30:27;;;;;;;;;;;18.40;71.50;;;;;;5072378;28;19931;-45
2021/11/16 14:33:05;;;;;;;;;;;18.50;72.30;;;;;;5073730;28;19925;-51
2021/11/16 14:35:32;;;;;;;;;;;18.50;71.70;;;;;;5073446;28;19924;-48
2021/11/16 14:37:59;;;;;;;;;;;18.50;71.70;;;;;;5073717;28;20028;-51
2021/11/16 14:40:27;;;;;;;;;;;18.50;72.40;;;;;;5073431;28;19925;-51
2021/11/16 14:42:56;;;;;;;;;;;18.40;71.60;;;;;;5056048;28;20334;-54
2021/11/16 14:45:33;;;;;;;;;;;18.50;71.80;;;;;;5072233;28;19924;-53
2021/11/16 14:48:05;;;;;;;;;;;18.40;71.70;;;;;;5073540;28;19947;-51
2021/11/16 14:50:34;;;;;;;;;;;18.40;71.70;;;;;;5073619;28;19931;-51
2021/11/16 14:53:12;;;;;;;;;;;18.40;71.80;;;;;;5073433;28;19939;-54